Ana Sayfa
METAR-TAF:

METAR-TAF

Havaalanları :

Oshima, Japonya

Enlem: 34-47N, Boylam: 139-22E, yükseklik: 38 m

Güncel hava durumu gözlemi

Rapor saat 08:00 UTC de 38 dakika önce yapıldı.
Rüzgar güney/güneybatıdan 18 kt
Sıcaklık 26°C
Nem 89%
Basınç 1006 hPa
Görüş mesafesi 10 km veya daha fazla
500 ft yükseklikte az bulutlu
parçalı çok bulutlu

METAR: RJTO 250800Z 21018KT 9999 FEW005 BKN/// 26/24 Q1006

Saat: 17:38 (08:38 UTC)


TAF: eksik

4.000'den fazla havaalanı için hava durumu gözlemleri ve tahminleri (METAR ve TAF raporları).

Kullanılabilir istasyonlar harita üzerinde sarı ve kırmızı noktalarla gösterilir.

İstasyonun adını görmek için fareyi noktanın üzerinde gezdirin.

Sonrasında hava gözlem ve tahminlerini görmek için tıklayın.

Haritayı değiştirmek için: yaklaştırmak için siyah artı işaretli yeşil düğmeye ve uzaklaştırmak için de eksi işaretli düğmeye hızla tıklayın; bitişik haritalar için yeşil okları kullanın.


METAR-TAF: